createdAt,value
2018-04-23T00:00:52.400Z,96.18
2018-04-23T00:01:52.377Z,96.22
2018-04-23T00:02:52.384Z,96.32
2018-04-23T00:03:52.364Z,96.99
2018-04-23T00:04:52.304Z,97.18
2018-04-23T00:05:52.285Z,97.75
2018-04-23T00:06:52.270Z,97.75
2018-04-23T00:07:52.253Z,97.85
2018-04-23T00:08:52.218Z,96.70
2018-04-23T00:09:52.229Z,97.28
2018-04-23T00:10:52.185Z,96.80
2018-04-23T00:11:52.164Z,96.89
2018-04-23T00:12:53.182Z,97.18
2018-04-23T00:13:52.122Z,96.80
2018-04-23T00:14:52.168Z,96.56
2018-04-23T00:15:52.073Z,97.23
2018-04-23T00:16:52.077Z,96.75
2018-04-23T00:17:52.027Z,96.94
2018-04-23T00:18:52.088Z,96.56
2018-04-23T00:19:52.004Z,96.66
2018-04-23T00:20:51.999Z,95.79
2018-04-23T00:21:51.950Z,96.37
2018-04-23T00:22:52.018Z,95.98
2018-04-23T00:23:51.913Z,96.08
2018-04-23T00:24:54.004Z,96.37
2018-04-23T00:25:51.869Z,94.84
2018-04-23T00:26:52.878Z,96.27
2018-04-23T00:27:51.839Z,96.27
2018-04-23T00:29:21.647Z,95.51
2018-04-23T00:29:51.772Z,96.18
2018-04-23T02:14:47.277Z,99.99
2018-04-23T02:15:38.156Z,99.99
2018-04-23T02:16:38.015Z,99.99
2018-04-23T02:17:52.717Z,99.99
2018-04-23T02:18:38.058Z,99.99
2018-04-23T02:19:37.969Z,99.99
2018-04-23T02:20:37.967Z,99.99
2018-04-23T02:21:37.971Z,99.99
2018-04-23T02:22:37.899Z,99.99
2018-04-23T02:23:37.859Z,99.99
2018-04-23T02:24:37.840Z,99.99
2018-04-23T02:25:37.825Z,99.99
2018-04-23T02:26:37.833Z,99.99
2018-04-23T02:27:37.777Z,99.99
2018-04-23T02:28:37.764Z,99.99
2018-04-23T02:29:37.739Z,99.99
2018-04-23T02:30:37.706Z,99.99
2018-04-23T02:31:37.689Z,99.99
2018-04-23T02:32:37.670Z,99.99
2018-04-23T02:33:37.678Z,99.99
2018-04-23T02:34:37.626Z,99.99
2018-04-23T02:35:37.620Z,99.99
2018-04-23T02:36:37.586Z,99.99
2018-04-23T02:37:37.572Z,99.99
2018-04-23T02:38:37.528Z,99.99
2018-04-23T02:39:37.542Z,99.99
2018-04-23T02:40:37.497Z,99.99
2018-04-23T02:41:37.509Z,99.99
2018-04-23T02:42:37.458Z,99.99
2018-04-23T02:43:37.522Z,99.99
2018-04-23T02:44:37.376Z,99.99
2018-04-23T02:45:37.429Z,99.99
2018-04-23T02:46:37.351Z,99.99
2018-04-23T02:47:37.460Z,99.99
2018-04-23T02:48:37.305Z,99.99
2018-04-23T02:49:37.337Z,99.99
2018-04-23T02:50:37.306Z,99.99
2018-04-23T02:51:37.277Z,99.99
2018-04-23T02:52:37.233Z,99.99
2018-04-23T02:53:37.289Z,99.99
2018-04-23T02:54:37.167Z,99.99
2018-04-23T02:55:37.214Z,99.99
2018-04-23T02:56:37.123Z,99.99
2018-04-23T02:57:37.186Z,99.99
2018-04-23T02:58:37.069Z,99.99
2018-04-23T02:59:37.118Z,99.99
2018-04-23T03:00:37.032Z,99.99
2018-04-23T03:01:37.118Z,99.99
2018-04-23T03:02:37.037Z,99.99
2018-04-23T03:03:37.029Z,99.99
2018-04-23T03:04:36.936Z,99.99
2018-04-23T03:05:37.979Z,99.99
2018-04-23T03:06:36.892Z,99.99
2018-04-23T03:07:36.979Z,99.99
2018-04-23T03:08:36.859Z,99.99
2018-04-23T03:09:36.882Z,99.99
2018-04-23T03:10:36.835Z,99.99
2018-04-23T03:11:36.886Z,99.99
2018-04-23T03:12:36.753Z,99.99
2018-04-23T03:13:36.864Z,99.99
2018-04-23T03:14:36.719Z,99.99
2018-04-23T03:15:36.711Z,99.99
2018-04-23T03:16:36.701Z,99.99
2018-04-23T03:17:36.710Z,99.99
2018-04-23T03:18:36.613Z,99.99
2018-04-23T03:19:36.621Z,99.99
2018-04-23T03:20:36.659Z,99.99
2018-04-23T03:21:36.665Z,99.99
2018-04-23T03:22:36.520Z,99.99
2018-04-23T03:23:36.576Z,99.99
2018-04-23T03:24:36.467Z,99.99
2018-04-23T03:25:36.561Z,99.99
2018-04-23T03:26:36.457Z,99.99
2018-04-23T03:27:36.476Z,99.99
2018-04-23T03:28:36.386Z,99.99
2018-04-23T03:29:36.486Z,99.99
2018-04-23T03:30:36.357Z,99.99
2018-04-23T03:31:36.392Z,99.99
2018-04-23T03:32:36.332Z,99.99
2018-04-23T03:33:36.303Z,99.99
2018-04-23T03:34:36.239Z,99.99
2018-04-23T03:35:36.354Z,99.99
2018-04-23T03:36:36.238Z,99.99
2018-04-23T03:37:36.241Z,99.99
2018-04-23T03:38:36.222Z,99.99
2018-04-23T03:39:36.236Z,99.99
2018-04-23T03:40:36.116Z,99.99
2018-04-23T03:41:36.176Z,99.99
2018-04-23T03:42:36.101Z,99.99
2018-04-23T03:43:36.067Z,99.99
2018-04-23T03:44:36.014Z,99.99
2018-04-23T03:45:36.087Z,99.99
2018-04-23T03:46:35.968Z,99.99
2018-04-23T03:47:36.017Z,99.99
2018-04-23T03:48:35.930Z,99.99
2018-04-23T03:49:36.010Z,99.99
2018-04-23T03:50:35.934Z,99.99
2018-04-23T03:51:35.916Z,99.99
2018-04-23T03:52:35.840Z,99.99
2018-04-23T03:53:37.935Z,99.99
2018-04-23T03:54:35.804Z,99.99
2018-04-23T03:55:35.854Z,99.99
2018-04-23T03:56:35.757Z,99.99
2018-04-23T03:57:35.787Z,99.99
2018-04-23T03:58:35.696Z,99.99
2018-04-23T03:59:47.355Z,99.99
2018-04-23T04:00:35.645Z,99.99
2018-04-23T04:02:07.340Z,99.67
2018-04-23T04:02:35.605Z,99.38
2018-04-23T04:03:35.598Z,99.00
2018-04-23T04:05:03.394Z,99.38
2018-04-23T04:05:35.576Z,99.57
2018-04-23T04:06:35.595Z,99.48
2018-04-23T04:07:48.327Z,99.96
2018-04-23T04:08:35.476Z,99.76
2018-04-23T04:09:37.511Z,99.99
2018-04-23T04:10:35.441Z,99.99
2018-04-23T04:37:38.306Z,98.57
2018-04-23T04:38:26.482Z,99.04
2018-04-23T04:39:26.432Z,98.85
2018-04-23T04:40:26.473Z,99.10
2018-04-23T04:41:26.408Z,98.85
2018-04-23T04:42:26.351Z,98.95
2018-04-23T04:43:26.340Z,98.75
2018-04-23T04:44:26.429Z,98.38
2018-04-23T04:45:26.312Z,97.90
2018-04-23T04:46:26.308Z,97.42
2018-04-23T04:47:26.242Z,97.04
2018-04-23T04:48:26.326Z,96.75
2018-04-23T04:49:26.193Z,96.08
2018-04-23T04:50:26.191Z,95.89
2018-04-23T04:51:26.280Z,95.79
2018-04-23T04:52:26.151Z,96.56
2018-04-23T04:53:26.165Z,95.22
2018-04-23T04:54:26.084Z,95.12
2018-04-23T04:55:26.091Z,95.12
2018-04-23T04:56:26.050Z,95.12
2018-04-23T04:57:26.109Z,94.93
2018-04-23T04:58:26.014Z,95.41
2018-04-23T04:59:26.016Z,95.22
2018-04-23T05:00:25.946Z,94.93
2018-04-23T05:01:26.069Z,93.88
2018-04-23T05:02:25.901Z,93.98
2018-04-23T05:03:25.993Z,94.74
2018-04-23T05:04:25.882Z,93.79
2018-04-23T05:05:25.864Z,94.46
2018-04-23T05:06:25.830Z,94.36
2018-04-23T05:07:25.896Z,94.36
2018-04-23T05:08:25.769Z,94.46
2018-04-23T05:09:25.813Z,94.55
2018-04-23T05:10:25.726Z,95.03
2018-04-23T05:11:25.795Z,94.46
2018-04-23T05:12:25.692Z,93.79
2018-04-23T05:13:25.700Z,94.26
2018-04-23T05:14:25.634Z,93.88
2018-04-23T05:15:25.726Z,94.07
2018-04-23T05:16:25.593Z,93.50
2018-04-23T05:17:25.653Z,94.17
2018-04-23T05:18:25.533Z,93.02
2018-04-23T05:19:25.544Z,93.02
2018-04-23T05:20:25.481Z,92.49
2018-04-23T05:21:25.557Z,92.54
2018-04-23T05:22:25.449Z,92.83
2018-04-23T05:23:25.481Z,93.12
2018-04-23T05:24:25.393Z,92.54
2018-04-23T05:25:25.475Z,91.97
2018-04-23T05:26:25.357Z,92.74
2018-04-23T05:27:25.345Z,92.30
2018-04-23T05:28:25.346Z,92.30
2018-04-23T05:29:25.309Z,92.30
2018-04-23T05:30:25.255Z,92.97
2018-04-23T05:31:25.314Z,93.07
2018-04-23T05:32:25.254Z,92.45
2018-04-23T05:33:25.266Z,92.30
2018-04-23T05:34:25.230Z,92.45
2018-04-23T05:35:25.154Z,91.83
2018-04-23T05:36:25.137Z,92.21
2018-04-23T05:37:50.833Z,92.59
2018-04-23T05:38:25.076Z,92.02
2018-04-23T05:46:16.063Z,92.49
2018-04-23T05:46:45.958Z,92.59
2018-04-23T06:25:00.045Z,87.95
2018-04-23T06:25:29.513Z,88.62
2018-04-23T06:26:29.561Z,87.47
2018-04-23T06:27:29.519Z,86.80
2018-04-23T06:28:29.417Z,86.70
2018-04-23T06:29:29.425Z,86.22
2018-04-23T06:30:29.393Z,85.89
2018-04-23T06:31:29.452Z,86.08
2018-04-23T06:32:29.330Z,86.47
2018-04-23T06:33:29.361Z,86.51
2018-04-23T06:34:29.327Z,85.84
2018-04-23T06:35:30.288Z,85.65
2018-04-23T06:36:29.247Z,85.36
2018-04-23T06:37:29.286Z,85.46
2018-04-23T06:38:29.209Z,85.27
2018-04-23T06:39:29.198Z,85.36
2018-04-23T06:40:29.177Z,85.55
2018-04-23T06:41:29.129Z,85.55
2018-04-23T06:42:29.260Z,85.27
2018-04-23T06:43:29.076Z,85.46
2018-04-23T06:44:29.074Z,84.88
2018-04-23T06:45:29.058Z,84.69
2018-04-23T06:46:29.039Z,84.31
2018-04-23T06:47:29.051Z,84.75
2018-04-23T06:48:28.968Z,85.46
2018-04-23T06:49:29.069Z,84.94
2018-04-23T06:50:28.912Z,85.22
2018-04-23T06:51:28.895Z,84.65
2018-04-23T06:52:28.996Z,84.94
2018-04-23T06:53:28.920Z,84.75
2018-04-23T06:54:28.826Z,85.61
2018-04-23T06:55:28.811Z,84.94
2018-04-23T06:56:28.810Z,85.41
2018-04-23T06:57:28.767Z,85.13
2018-04-23T06:58:28.836Z,85.99
2018-04-23T06:59:28.729Z,85.99
2018-04-23T07:00:28.723Z,85.89
2018-04-23T07:01:28.680Z,85.13
2018-04-23T07:02:28.743Z,85.13
2018-04-23T07:03:28.665Z,85.61
2018-04-23T07:04:28.619Z,85.41
2018-04-23T07:05:28.601Z,85.51
2018-04-23T07:06:28.649Z,85.13
2018-04-23T07:07:28.530Z,85.22
2018-04-23T07:08:30.639Z,85.22
2018-04-23T07:09:28.520Z,85.13
2018-04-23T07:10:28.542Z,84.75
2018-04-23T07:11:28.512Z,84.65
2018-04-23T07:12:28.447Z,84.65
2018-04-23T07:13:28.520Z,85.13
2018-04-23T07:14:28.361Z,84.75
2018-04-23T07:15:28.363Z,83.89
2018-04-23T07:16:30.372Z,84.65
2018-04-23T07:17:28.295Z,84.65
2018-04-23T07:18:28.268Z,83.98
2018-04-23T07:19:28.256Z,84.46
2018-04-23T07:20:28.226Z,84.27
2018-04-23T07:21:29.291Z,84.08
2018-04-23T07:22:28.177Z,84.36
2018-04-23T07:23:28.288Z,83.50
2018-04-23T07:24:28.163Z,83.31
2018-04-23T07:25:32.807Z,83.50
2018-04-23T07:26:28.104Z,83.69
2018-04-23T07:27:28.180Z,84.65
2018-04-23T07:28:28.040Z,84.75
2018-04-23T07:29:28.109Z,84.08
2018-04-23T07:30:27.969Z,84.27
2018-04-23T07:31:27.972Z,84.65
2018-04-23T07:32:28.022Z,84.75
2018-04-23T07:33:27.949Z,85.22
2018-04-23T07:34:27.890Z,84.55
2018-04-23T07:35:27.873Z,84.65
2018-04-23T07:36:27.841Z,85.32
2018-04-23T07:37:28.903Z,84.55
2018-04-23T07:38:27.802Z,83.79
2018-04-23T07:39:32.794Z,83.69
2018-04-23T07:40:27.749Z,83.98
2018-04-23T07:41:38.765Z,83.03
2018-04-23T07:42:27.703Z,82.35
2018-04-23T07:43:27.805Z,82.45
2018-04-23T07:44:27.657Z,82.07
2018-04-23T07:45:27.717Z,82.93
2018-04-23T07:46:27.601Z,83.03
2018-04-23T07:47:27.627Z,82.83
2018-04-23T07:48:27.562Z,83.40
2018-04-23T07:49:38.287Z,82.83
2018-04-23T07:50:27.521Z,83.12
2018-04-23T07:51:27.492Z,82.93
2018-04-23T07:52:40.242Z,82.11
2018-04-23T07:53:27.442Z,81.82
2018-04-23T07:54:27.450Z,82.40
2018-04-23T07:55:27.393Z,82.01
2018-04-23T07:56:27.368Z,81.82
2018-04-23T07:57:27.366Z,81.34
2018-04-23T07:58:38.248Z,80.67
2018-04-23T07:59:27.298Z,81.21
2018-04-23T08:00:29.341Z,82.30
2018-04-23T08:01:27.385Z,80.77
2018-04-23T08:02:28.375Z,80.19
2018-04-23T08:03:27.219Z,79.62
2018-04-23T08:04:27.229Z,80.87
2018-04-23T08:05:27.161Z,80.67
2018-04-23T08:06:55.860Z,79.72
2018-04-23T08:07:27.132Z,79.05
2018-04-23T08:08:27.113Z,80.10
2018-04-23T08:09:27.144Z,80.38
2018-04-23T08:10:27.076Z,79.14
2018-04-23T08:11:28.104Z,78.86
2018-04-23T08:12:26.999Z,78.28
2018-04-23T08:13:29.064Z,77.70
2018-04-23T08:14:26.948Z,77.99
2018-04-23T08:15:31.793Z,78.42
2018-04-23T08:16:26.933Z,79.66
2018-04-23T08:17:28.951Z,79.37
2018-04-23T08:18:26.864Z,78.03
2018-04-23T08:19:26.993Z,79.95
2018-04-23T08:20:26.842Z,78.03
2018-04-23T08:21:27.833Z,76.60
2018-04-23T08:22:26.806Z,78.22
2018-04-23T08:23:27.282Z,78.42
2018-04-23T08:24:26.763Z,77.17
2018-04-23T08:25:26.874Z,78.27
2018-04-23T08:26:26.662Z,77.50
2018-04-23T08:27:39.324Z,77.02
2018-04-23T08:28:26.619Z,76.77
2018-04-23T08:29:32.227Z,74.62
2018-04-23T08:30:26.583Z,75.10
2018-04-23T08:31:26.607Z,76.35
2018-04-23T08:32:33.288Z,76.64
2018-04-23T08:33:26.539Z,75.71
2018-04-23T08:34:26.511Z,75.04
2018-04-23T08:35:28.574Z,74.66
2018-04-23T08:36:26.441Z,74.72
2018-04-23T08:37:26.410Z,75.04
2018-04-23T08:38:27.480Z,75.90
2018-04-23T08:39:26.376Z,75.01
2018-04-23T08:40:26.340Z,75.29
2018-04-23T08:41:26.317Z,74.15
2018-04-23T08:42:26.311Z,74.91
2018-04-23T08:43:26.385Z,74.66
2018-04-23T08:44:26.283Z,74.66
2018-04-23T08:45:26.293Z,73.80
2018-04-23T08:46:26.223Z,72.94
2018-04-23T08:47:27.380Z,72.64
2018-04-23T08:48:26.164Z,72.39
2018-04-23T08:49:26.186Z,72.97
2018-04-23T08:50:31.757Z,70.92
2018-04-23T08:51:26.082Z,72.30
2018-04-23T08:52:28.218Z,70.76
2018-04-23T08:53:26.035Z,70.96
2018-04-23T08:54:27.077Z,72.11
2018-04-23T08:55:26.029Z,69.36
2018-04-23T08:56:42.754Z,68.30
2018-04-23T08:57:25.955Z,68.59
2018-04-23T08:58:27.023Z,70.03
2018-04-23T08:59:25.955Z,68.79
2018-04-23T09:00:30.787Z,68.21
2018-04-23T09:01:25.918Z,68.63
2018-04-23T09:02:31.747Z,67.57
2018-04-23T09:03:25.820Z,66.90
2018-04-23T09:04:26.820Z,67.57
2018-04-23T09:05:25.768Z,67.00
2018-04-23T09:06:25.814Z,67.29
2018-04-23T09:07:25.719Z,66.80
2018-04-23T09:08:38.319Z,67.00
2018-04-23T09:09:25.734Z,66.42
2018-04-23T09:10:36.285Z,67.09
2018-04-23T09:11:25.641Z,68.02
2018-04-23T09:12:28.057Z,68.95
2018-04-23T09:13:25.588Z,69.81
2018-04-23T09:14:25.763Z,70.96
2018-04-23T09:15:25.558Z,69.71
2018-04-23T09:16:27.648Z,68.72
2018-04-23T09:17:25.499Z,69.23
2018-04-23T09:18:25.608Z,69.68
2018-04-23T09:19:25.475Z,69.87
2018-04-23T09:20:25.416Z,71.40
2018-04-23T09:21:25.402Z,70.35
2018-04-23T09:22:25.407Z,70.15
2018-04-23T09:23:25.377Z,71.21
2018-04-23T09:24:25.434Z,69.58
2018-04-23T09:25:25.306Z,69.01
2018-04-23T09:26:25.331Z,69.54
2018-04-23T09:27:25.309Z,68.49
2018-04-23T09:28:25.290Z,69.01
2018-04-23T09:29:25.283Z,68.21
2018-04-23T09:30:27.288Z,68.24
2018-04-23T09:31:25.181Z,70.06
2018-04-23T09:32:25.264Z,67.28
2018-04-23T09:33:25.139Z,67.99
2018-04-23T09:34:25.103Z,65.68
2018-04-23T09:35:26.192Z,65.39
2018-04-23T09:36:25.086Z,66.35
2018-04-23T09:37:25.097Z,66.49
2018-04-23T09:38:25.024Z,62.93
2018-04-23T09:39:27.096Z,62.29
2018-04-23T09:40:25.015Z,61.43
2018-04-23T09:41:27.069Z,59.32
2018-04-23T09:42:24.950Z,58.07
2018-04-23T09:43:24.936Z,59.03
2018-04-23T09:44:24.949Z,58.87
2018-04-23T09:45:24.948Z,58.96
2018-04-23T09:46:24.845Z,60.60
2018-04-23T09:47:24.848Z,60.34
2018-04-23T09:48:24.793Z,59.28
2018-04-23T09:49:25.905Z,57.20
2018-04-23T09:50:24.770Z,56.81
2018-04-23T09:51:24.777Z,55.85
2018-04-23T09:52:24.752Z,55.53
2018-04-23T09:53:25.727Z,55.69
2018-04-23T09:54:24.656Z,57.97
2018-04-23T09:55:24.670Z,57.78
2018-04-23T09:56:25.768Z,59.12
2018-04-23T09:57:24.613Z,57.21
2018-04-23T09:58:24.617Z,58.87
2018-04-23T09:59:24.547Z,58.00
2018-04-23T10:00:24.660Z,56.30
2018-04-23T10:01:24.540Z,55.91
2018-04-23T10:02:24.474Z,56.62
2018-04-23T10:03:24.491Z,53.83
2018-04-23T10:04:24.438Z,53.52
2018-04-23T10:05:24.563Z,54.96
2018-04-23T10:06:24.409Z,54.77
2018-04-23T10:07:24.487Z,55.46
2018-04-23T10:08:24.338Z,54.50
2018-04-23T10:09:24.340Z,54.63
2018-04-23T10:10:24.408Z,53.25
2018-04-23T10:11:24.267Z,54.43
2018-04-23T10:12:57.355Z,54.05
2018-04-23T10:13:24.237Z,52.12
2018-04-23T10:14:24.275Z,53.38
2018-04-23T10:15:48.882Z,51.84
2018-04-23T10:16:24.199Z,51.98
2018-04-23T10:17:29.788Z,54.67
2018-04-23T10:18:24.111Z,54.77
2018-04-23T10:19:24.203Z,54.57
2018-04-23T10:33:30.411Z,58.94
2018-04-23T10:34:27.373Z,59.06
2018-04-23T10:35:27.457Z,58.29
2018-04-23T10:36:27.354Z,58.96
2018-04-23T10:37:28.499Z,59.34
2018-04-23T10:38:27.319Z,57.14
2018-04-23T10:39:32.371Z,56.49
2018-04-23T10:40:27.263Z,56.88
2018-04-23T10:41:29.315Z,54.79
2018-04-23T10:42:27.212Z,54.12
2018-04-23T10:43:41.820Z,53.96
2018-04-23T10:44:27.190Z,55.40
2018-04-23T10:45:43.913Z,52.63
2018-04-23T10:46:27.136Z,50.81
2018-04-23T10:47:42.885Z,50.49
2018-04-23T10:48:27.075Z,52.58
2018-04-23T10:49:37.877Z,54.38
2018-04-23T10:50:27.040Z,54.96
2018-04-23T10:51:54.866Z,55.29
2018-04-23T10:52:27.045Z,56.53
2018-04-23T10:53:27.004Z,58.36
2018-04-23T10:54:32.883Z,57.97
2018-04-23T10:55:26.930Z,59.22
2018-04-23T10:56:26.936Z,59.99
2018-04-23T10:57:26.923Z,59.86
2018-04-23T10:58:39.859Z,59.86
2018-04-23T10:59:26.841Z,59.86
2018-04-23T11:00:26.883Z,59.77
2018-04-23T11:01:26.817Z,60.05
2018-04-23T11:02:28.833Z,59.96
2018-04-23T11:03:26.749Z,60.50
2018-04-23T11:04:38.388Z,61.21
2018-04-23T11:05:26.714Z,60.92
2018-04-23T11:06:27.736Z,60.82
2018-04-23T11:07:26.663Z,60.05
2018-04-23T11:08:27.758Z,60.05
2018-04-23T11:09:26.672Z,59.86
2018-04-23T11:10:52.330Z,59.77
2018-04-23T11:11:26.612Z,59.41
2018-04-23T11:12:26.559Z,59.22
2018-04-23T11:13:42.323Z,58.17
2018-04-23T11:14:26.557Z,58.10
2018-04-23T11:15:33.313Z,57.68
2018-04-23T11:16:26.475Z,58.07
2018-04-23T11:17:37.373Z,57.90
2018-04-23T11:18:26.445Z,56.85
2018-04-23T11:19:26.500Z,54.64
2018-04-23T11:20:26.390Z,54.64
2018-04-23T11:21:33.372Z,54.38
2018-04-23T11:22:26.338Z,53.61
2018-04-23T11:23:48.434Z,55.44
2018-04-23T11:24:26.365Z,55.18
2018-04-23T11:25:26.338Z,53.92
2018-04-23T11:26:26.279Z,52.80
2018-04-23T11:27:27.296Z,51.84
2018-04-23T11:28:26.206Z,51.29
2018-04-23T11:29:40.845Z,49.84
2018-04-23T11:30:26.197Z,49.82
2018-04-23T11:31:31.798Z,50.97
2018-04-23T11:32:26.137Z,50.68
2018-04-23T11:33:31.818Z,49.33
2018-04-23T11:34:26.081Z,50.08
2018-04-23T11:35:28.129Z,51.02
2018-04-23T11:36:26.040Z,52.94
2018-04-23T11:37:36.849Z,52.10
2018-04-23T11:38:25.999Z,51.23
2018-04-23T11:39:26.033Z,51.53
2018-04-23T11:40:25.988Z,50.95
2018-04-23T11:41:50.811Z,52.03
2018-04-23T11:42:25.890Z,52.15
2018-04-23T11:43:25.874Z,52.56
2018-04-23T11:44:46.871Z,50.57
2018-04-23T11:45:25.841Z,46.33
2018-04-23T11:46:47.905Z,47.97
2018-04-23T11:47:25.803Z,46.98
2018-04-23T11:48:25.895Z,47.82
2018-04-23T11:49:25.758Z,48.59
2018-04-23T11:50:37.358Z,49.58
2018-04-23T11:51:25.709Z,48.33
2018-04-23T12:03:24.740Z,50.71
2018-04-23T12:04:08.102Z,50.97
2018-04-23T12:05:09.122Z,52.48
2018-04-23T12:06:08.087Z,54.09
2018-04-23T12:07:19.758Z,54.16
2018-04-23T12:08:07.992Z,54.83
2018-04-23T12:09:09.080Z,54.96
2018-04-23T12:10:07.959Z,55.91
2018-04-23T12:11:18.664Z,54.77
2018-04-23T12:12:07.945Z,54.31
2018-04-23T12:13:07.906Z,54.43
2018-04-23T12:14:08.065Z,51.74
2018-04-23T12:15:07.878Z,50.01
2018-04-23T12:16:08.967Z,51.07
2018-04-23T12:17:09.583Z,52.61
2018-04-23T12:18:10.585Z,52.03
2018-04-23T12:19:08.888Z,49.65
2018-04-23T12:20:09.561Z,47.36
2018-04-23T12:21:09.816Z,47.36
2018-04-23T12:22:07.785Z,46.81
2018-04-23T12:23:09.547Z,45.94
2018-04-23T12:24:09.743Z,45.94
2018-04-23T12:25:07.645Z,47.05
2018-04-23T12:26:44.616Z,50.61
2018-04-23T12:27:07.620Z,48.71
2018-04-23T12:28:07.600Z,50.32
2018-04-23T12:29:09.653Z,53.02
2018-04-23T12:30:07.554Z,53.62
2018-04-23T12:31:08.621Z,50.83
2018-04-23T12:32:07.510Z,46.40
2018-04-23T12:33:18.134Z,46.47
2018-04-23T12:34:07.450Z,47.27
2018-04-23T12:35:20.103Z,45.61
2018-04-23T12:36:07.401Z,46.11
2018-04-23T12:37:09.468Z,45.51
2018-04-23T12:38:07.377Z,45.42
2018-04-23T12:39:07.446Z,45.22
2018-04-23T12:40:07.380Z,44.96
2018-04-23T12:41:12.182Z,44.48
2018-04-23T12:42:07.301Z,45.13
2018-04-23T12:58:36.730Z,45.32
2018-04-23T12:59:35.621Z,44.35
2018-04-23T13:00:47.543Z,45.32
2018-04-23T13:01:35.513Z,45.13
2018-04-23T13:02:40.500Z,45.34
2018-04-23T13:03:35.471Z,44.19
2018-04-23T13:04:35.561Z,43.23
2018-04-23T13:05:35.432Z,44.86
2018-04-23T13:06:37.519Z,43.71
2018-04-23T13:07:35.404Z,43.90
2018-04-23T13:08:35.509Z,44.96
2018-04-23T13:09:35.344Z,43.54
2018-04-23T13:10:40.021Z,44.11
2018-04-23T13:11:35.371Z,44.98
2018-04-23T13:13:05.031Z,42.86
2018-04-23T13:13:35.270Z,42.47
2018-04-23T13:14:36.343Z,41.89
2018-04-23T13:15:35.421Z,41.51
2018-04-23T13:16:45.986Z,41.22
2018-04-23T13:17:35.177Z,42.09
2018-04-23T13:18:47.030Z,42.07
2018-04-23T13:19:35.124Z,43.01
2018-04-23T13:21:12.058Z,43.97
2018-04-23T13:21:35.105Z,44.93
2018-04-23T13:22:35.066Z,45.13
2018-04-23T13:23:47.979Z,43.76
2018-04-23T13:24:35.050Z,44.65
2018-04-23T13:25:51.985Z,43.88
2018-04-23T13:26:35.008Z,44.07
2018-04-23T13:27:52.041Z,45.13
2018-04-23T13:28:34.960Z,43.59
2018-04-23T13:29:35.024Z,43.01
2018-04-23T13:30:34.888Z,42.14
2018-04-23T13:31:56.956Z,41.97
2018-04-23T13:32:34.865Z,43.11
2018-04-23T13:33:40.534Z,43.23
2018-04-23T13:34:34.810Z,41.78
2018-04-23T13:35:59.521Z,42.16
2018-04-23T13:36:34.779Z,41.88
2018-04-23T13:46:59.915Z,43.18
2018-04-23T13:47:57.968Z,44.34
2018-04-23T13:48:59.034Z,43.59
2018-04-23T13:49:57.942Z,41.59
2018-04-23T13:51:26.864Z,41.01
2018-04-23T13:51:57.919Z,41.01
2018-04-23T13:53:02.820Z,40.14
2018-04-23T13:53:57.823Z,41.22
2018-04-23T13:54:58.840Z,40.36
2018-04-23T13:55:57.790Z,40.94
2018-04-23T13:57:10.913Z,42.09
2018-04-23T13:57:57.807Z,43.63
2018-04-23T13:59:02.355Z,44.67
2018-04-23T13:59:57.714Z,45.42
2018-04-23T14:00:59.804Z,45.68
2018-04-23T14:01:57.688Z,46.55
2018-04-23T14:02:57.679Z,47.58
2018-04-23T14:03:57.652Z,48.93
2018-04-23T14:05:18.704Z,47.39
2018-04-23T14:05:57.588Z,47.39
2018-04-23T14:07:03.359Z,48.45
2018-04-23T14:07:57.562Z,48.16
2018-04-23T14:08:57.518Z,47.68
2018-04-23T14:10:03.343Z,48.45
2018-04-23T14:10:57.485Z,49.12
2018-04-23T14:12:23.377Z,48.35
2018-04-23T14:12:57.449Z,48.25
2018-04-23T14:13:57.433Z,48.71
2018-04-23T14:14:57.441Z,48.61
2018-04-23T14:15:57.384Z,49.00
2018-04-23T14:17:02.382Z,49.00
2018-04-23T14:17:57.343Z,48.43
2018-04-23T14:18:57.320Z,48.30
2018-04-23T14:20:21.331Z,48.79
2018-04-23T14:20:57.307Z,49.00
2018-04-23T14:22:07.833Z,49.38
2018-04-23T14:22:57.231Z,49.00
2018-04-23T14:24:13.804Z,48.83
2018-04-23T14:24:57.236Z,49.22
2018-04-23T14:25:59.294Z,48.74
2018-04-23T14:26:57.148Z,49.02
2018-04-23T14:27:59.200Z,47.10
2018-04-23T14:28:57.104Z,46.53
2018-04-23T14:30:07.805Z,47.20
2018-04-23T14:30:57.088Z,46.98
2018-04-23T14:31:58.180Z,48.33
2018-04-23T14:32:57.045Z,47.94
2018-04-23T14:34:19.124Z,48.04
2018-04-23T14:34:57.001Z,48.13
2018-04-23T14:35:56.983Z,48.71
2018-04-23T14:36:56.926Z,48.81
2018-04-23T14:38:12.848Z,48.43
2018-04-23T14:38:56.896Z,48.61
2018-04-23T14:40:26.828Z,48.23
2018-04-23T14:40:56.845Z,47.27
2018-04-23T14:41:56.824Z,47.46
2018-04-23T14:47:05.275Z,48.04
2018-04-23T14:48:05.200Z,47.56
2018-04-23T14:49:05.252Z,47.94
2018-04-23T14:50:05.190Z,48.33
2018-04-23T14:51:11.950Z,48.02
2018-04-23T14:52:05.172Z,48.97
2018-04-23T14:53:07.192Z,49.17
2018-04-23T14:54:05.057Z,49.74
2018-04-23T14:55:29.979Z,50.32
2018-04-23T14:56:05.019Z,49.84
2018-04-23T14:57:28.959Z,49.74
2018-04-23T14:58:04.965Z,49.07
2018-04-23T14:59:38.924Z,49.65
2018-04-23T15:00:04.942Z,50.03
2018-04-23T15:01:04.920Z,49.84
2018-04-23T15:02:07.012Z,50.80
2018-04-23T15:03:04.865Z,49.84
2018-04-23T15:04:15.383Z,50.51
2018-04-23T15:05:04.817Z,50.51
2018-04-23T15:11:44.416Z,49.62
2018-04-23T15:12:44.415Z,50.49
2018-04-23T15:13:46.382Z,50.39
2018-04-23T15:14:44.326Z,50.39
2018-04-23T15:15:46.419Z,50.68
2018-04-23T15:16:44.300Z,50.96
2018-04-23T15:18:05.267Z,50.78
2018-04-23T15:18:44.244Z,50.87
2018-04-23T15:19:44.213Z,51.35
2018-04-23T15:20:49.950Z,50.84
2018-04-23T15:21:44.161Z,51.54
2018-04-23T15:22:45.214Z,51.73
2018-04-23T15:23:44.161Z,51.51
2018-04-23T15:24:54.957Z,52.09
2018-04-23T15:25:44.087Z,51.71
2018-04-23T15:26:56.002Z,51.90
2018-04-23T15:27:44.097Z,51.71
2018-04-23T15:28:59.028Z,51.81
2018-04-23T15:29:44.006Z,51.90
2018-04-23T15:30:44.063Z,52.38
2018-04-23T15:31:43.962Z,51.61
2018-04-23T15:32:43.934Z,51.23
2018-04-23T15:33:46.028Z,51.90
2018-04-23T15:34:43.899Z,51.81
2018-04-23T15:35:49.505Z,52.28
2018-04-23T15:36:44.141Z,52.38
2018-04-23T15:37:45.976Z,52.38
2018-04-23T15:38:43.827Z,52.57
2018-04-23T15:39:45.881Z,52.50
2018-04-23T15:40:43.788Z,52.09
2018-04-23T15:41:45.853Z,52.28
2018-04-23T15:42:43.717Z,52.57
2018-04-23T15:43:56.401Z,53.08
2018-04-23T15:44:43.714Z,52.98
2018-04-23T16:17:22.070Z,51.90
2018-04-23T16:18:06.489Z,51.61
2018-04-23T16:19:17.037Z,52.09
2018-04-23T16:20:06.444Z,51.32
2018-04-23T16:21:17.038Z,51.32
2018-04-23T16:22:06.390Z,52.09
2018-04-23T16:23:07.427Z,52.00
2018-04-23T16:24:06.414Z,52.64
2018-04-23T16:25:11.017Z,52.26
2018-04-23T16:26:06.311Z,51.87
2018-04-23T16:27:30.114Z,51.59
2018-04-23T16:28:06.265Z,52.55
2018-04-23T16:29:12.083Z,52.26
2018-04-23T16:30:06.290Z,52.36
2018-04-23T16:31:06.276Z,52.26
2018-04-23T16:32:06.185Z,52.45
2018-04-23T16:33:13.038Z,51.87
2018-04-23T16:34:06.165Z,52.45
2018-04-23T16:35:07.248Z,52.16
2018-04-23T16:36:06.088Z,52.45
2018-04-23T16:37:06.119Z,52.64
2018-04-23T16:38:06.065Z,52.64
2018-04-23T16:39:22.138Z,52.83
2018-04-23T16:40:06.052Z,52.64
2018-04-23T16:41:07.078Z,52.74
2018-04-23T16:42:05.958Z,52.74
2018-04-23T16:43:20.676Z,52.55
2018-04-23T16:44:05.955Z,53.12
2018-04-23T16:45:26.952Z,53.70
2018-04-23T16:46:06.002Z,53.89
2018-04-23T16:47:20.623Z,53.58
2018-04-23T16:48:05.833Z,53.96
2018-04-23T16:49:35.580Z,53.77
2018-04-23T16:50:05.802Z,53.86
2018-04-23T16:51:11.507Z,53.67
2018-04-23T16:52:05.746Z,53.77
2018-04-23T16:53:38.585Z,53.48
2018-04-23T16:54:05.712Z,53.28
2018-04-23T16:55:34.645Z,52.81
2018-04-23T16:56:05.665Z,52.91
2018-04-23T16:57:10.526Z,52.74
2018-04-23T16:58:05.622Z,52.71
2018-04-23T16:59:11.577Z,52.62
2018-04-23T17:00:05.585Z,53.09
2018-04-23T17:01:10.589Z,53.86
2018-04-23T17:02:05.564Z,53.58
2018-04-23T17:03:06.656Z,53.09
2018-04-23T17:04:05.492Z,53.00
2018-04-23T17:05:17.049Z,52.62
2018-04-23T17:06:05.491Z,53.77
2018-04-23T17:07:06.536Z,53.48
2018-04-23T17:08:05.408Z,53.38
2018-04-23T17:09:16.032Z,53.48
2018-04-23T17:10:05.346Z,53.96
2018-04-23T17:11:05.420Z,54.05
2018-04-23T17:12:05.319Z,53.86
2018-04-23T17:13:10.021Z,54.34
2018-04-23T17:14:05.268Z,53.64
2018-04-23T17:15:29.100Z,53.64